Time;durP1;ratioP1;P1;durP2;ratioP2;P2;SDS_P1;SDS_P2;PMS_P1;PMS_P2;Temp;Humidity;BMP_temperature;BMP_pressure;BME280_temperature;BME280_humidity;BME280_pressure;Samples;Min_cycle;Max_cycle;Signal;HPM_P1;HPM_P2
2023/11/18 00:01:33;;;;;;;24.50;6.65;;;;;;;;;;5922772;29;20047;-83
2023/11/18 00:04:35;;;;;;;24.95;7.47;;;;;;;;;;5917331;29;20059;-82
2023/11/18 00:07:37;;;;;;;35.13;9.70;;;;;;;;;;5921534;29;20072;-82
2023/11/18 00:10:39;;;;;;;31.85;10.02;;;;;;;;;;5934074;29;20050;-82
2023/11/18 00:13:44;;;;;;;30.45;9.10;;;;;;;;;;5918121;29;20047;-83
2023/11/18 00:16:46;;;;;;;37.80;10.05;;;;;;;;;;5934560;29;20058;-83
2023/11/18 00:19:48;;;;;;;31.60;9.40;;;;;;;;;;5937389;29;20042;-83
2023/11/18 00:22:51;;;;;;;34.50;8.25;;;;;;;;;;5905816;29;20112;-83
2023/11/18 00:25:53;;;;;;;27.33;8.82;;;;;;;;;;5921222;29;20117;-83
2023/11/18 00:28:54;;;;;;;28.02;8.45;;;;;;;;;;5934596;29;20059;-83
2023/11/18 00:31:56;;;;;;;24.42;8.07;;;;;;;;;;5917755;29;20063;-83
2023/11/18 00:34:58;;;;;;;26.45;7.50;;;;;;;;;;5919024;29;20567;-83
2023/11/18 00:38:00;;;;;;;38.30;7.65;;;;;;;;;;5917438;29;20059;-83
2023/11/18 00:41:02;;;;;;;32.75;7.15;;;;;;;;;;5919115;29;20055;-83
2023/11/18 00:44:04;;;;;;;32.22;7.60;;;;;;;;;;5905335;29;20046;-83
2023/11/18 00:47:06;;;;;;;30.55;7.72;;;;;;;;;;5938111;29;20051;-84
2023/11/18 00:50:08;;;;;;;126.70;11.45;;;;;;;;;;5945477;29;20055;-84
2023/11/18 00:53:10;;;;;;;104.32;11.45;;;;;;;;;;5938805;29;20058;-83
2023/11/18 00:56:18;;;;;;;36.13;8.52;;;;;;;;;;5924954;29;20050;-84
2023/11/18 00:59:20;;;;;;;30.98;7.70;;;;;;;;;;5941370;29;20096;-84
2023/11/18 01:02:22;;;;;;;32.00;7.78;;;;;;;;;;5923259;29;20488;-83
2023/11/18 01:05:24;;;;;;;51.22;7.88;;;;;;;;;;5921969;29;20099;-84
2023/11/18 01:08:25;;;;;;;62.22;8.85;;;;;;;;;;5909357;29;20044;-83
2023/11/18 01:11:27;;;;;;;31.63;7.40;;;;;;;;;;5919780;29;20527;-83
2023/11/18 01:14:29;;;;;;;50.72;8.10;;;;;;;;;;5937545;29;20057;-83
2023/11/18 01:17:31;;;;;;;29.00;8.15;;;;;;;;;;5928617;29;20051;-83
2023/11/18 01:20:33;;;;;;;73.07;9.30;;;;;;;;;;5926416;29;20138;-84
2023/11/18 01:23:38;;;;;;;43.20;8.10;;;;;;;;;;5920483;29;20598;-83
2023/11/18 01:26:40;;;;;;;71.40;9.15;;;;;;;;;;5916153;29;20052;-83
2023/11/18 01:29:42;;;;;;;46.17;8.27;;;;;;;;;;5930812;29;20564;-83
2023/11/18 01:32:44;;;;;;;63.63;7.80;;;;;;;;;;5914101;30;20186;-84
2023/11/18 01:35:46;;;;;;;64.43;8.07;;;;;;;;;;5909668;30;20126;-83
2023/11/18 01:38:49;;;;;;;97.00;10.63;;;;;;;;;;5913627;30;20397;-83
2023/11/18 01:41:50;;;;;;;49.55;8.05;;;;;;;;;;5909455;30;20056;-82
2023/11/18 01:44:52;;;;;;;38.05;8.25;;;;;;;;;;5918474;29;20059;-83
2023/11/18 01:47:54;;;;;;;31.07;7.47;;;;;;;;;;5933550;29;20066;-83
2023/11/18 01:50:58;;;;;;;40.60;7.00;;;;;;;;;;5932207;29;20065;-82
2023/11/18 01:54:00;;;;;;;23.30;6.35;;;;;;;;;;5934988;29;20059;-83
2023/11/18 01:57:05;;;;;;;35.67;7.07;;;;;;;;;;5916881;29;20079;-82
2023/11/18 02:00:08;;;;;;;19.15;6.60;;;;;;;;;;5903064;29;20058;-84
2023/11/18 02:03:13;;;;;;;29.55;7.70;;;;;;;;;;5929051;29;20423;-83
2023/11/18 02:06:16;;;;;;;27.40;6.25;;;;;;;;;;5918644;29;20103;-82
2023/11/18 02:09:27;;;;;;;40.75;6.75;;;;;;;;;;5917068;29;20047;-82
2023/11/18 02:12:56;;;;;;;41.85;7.93;;;;;;;;;;5915846;30;20051;-83
2023/11/18 02:15:59;;;;;;;34.03;7.43;;;;;;;;;;5919866;29;20192;-82
2023/11/18 02:19:01;;;;;;;30.70;7.28;;;;;;;;;;5920827;30;20047;-81
2023/11/18 02:22:07;;;;;;;51.80;6.77;;;;;;;;;;5934630;29;20519;-81
2023/11/18 02:25:10;;;;;;;21.40;6.03;;;;;;;;;;5931764;29;20051;-81
2023/11/18 02:28:12;;;;;;;35.70;6.15;;;;;;;;;;5916553;29;20158;-83
2023/11/18 02:31:21;;;;;;;16.95;6.82;;;;;;;;;;5932425;29;20055;-82
2023/11/18 02:34:30;;;;;;;20.10;5.65;;;;;;;;;;5914390;29;20055;-83
2023/11/18 02:37:33;;;;;;;23.08;6.63;;;;;;;;;;5931893;30;20056;-83
2023/11/18 02:40:45;;;;;;;18.10;5.78;;;;;;;;;;5911980;30;20538;-83
2023/11/18 02:43:47;;;;;;;45.22;5.97;;;;;;;;;;5913636;30;20047;-84
2023/11/18 02:46:49;;;;;;;20.38;5.35;;;;;;;;;;5913463;30;20052;-83
2023/11/18 02:49:56;;;;;;;28.38;6.50;;;;;;;;;;5898390;30;20055;-82
2023/11/18 02:52:58;;;;;;;29.58;5.70;;;;;;;;;;5928167;29;20424;-84
2023/11/18 02:56:02;;;;;;;21.15;5.80;;;;;;;;;;5918829;30;20143;-83
2023/11/18 02:59:05;;;;;;;43.88;6.55;;;;;;;;;;5920548;29;20177;-82
2023/11/18 03:02:09;;;;;;;29.75;6.13;;;;;;;;;;5910442;30;20091;-84
2023/11/18 03:05:11;;;;;;;22.35;5.72;;;;;;;;;;5898693;30;20389;-83
2023/11/18 03:08:13;;;;;;;22.35;6.03;;;;;;;;;;5913924;30;20055;-83
2023/11/18 03:11:15;;;;;;;45.75;6.60;;;;;;;;;;5925828;29;20051;-84
2023/11/18 03:14:17;;;;;;;48.08;6.65;;;;;;;;;;5917832;30;20058;-82
2023/11/18 03:17:20;;;;;;;19.83;5.95;;;;;;;;;;5910233;30;20059;-83
2023/11/18 03:20:23;;;;;;;28.88;6.85;;;;;;;;;;5888434;30;20565;-82
2023/11/18 03:23:25;;;;;;;16.15;5.60;;;;;;;;;;5907179;29;20423;-82
2023/11/18 03:26:26;;;;;;;22.25;6.72;;;;;;;;;;5903091;30;20056;-84
2023/11/18 03:29:29;;;;;;;19.10;5.85;;;;;;;;;;5911618;30;20510;-81
2023/11/18 03:32:37;;;;;;;28.88;6.25;;;;;;;;;;6211300;27;2064410;-79
2023/11/18 03:35:39;;;;;;;31.65;5.60;;;;;;;;;;6269902;28;20090;-79
2023/11/18 03:38:41;;;;;;;28.10;5.53;;;;;;;;;;6279085;28;20037;-79
2023/11/18 03:41:44;;;;;;;40.10;5.47;;;;;;;;;;6256300;28;20113;-80
2023/11/18 03:44:47;;;;;;;35.97;6.47;;;;;;;;;;6261383;28;20049;-78
2023/11/18 03:47:50;;;;;;;20.00;5.80;;;;;;;;;;6261414;28;20049;-79
2023/11/18 03:50:53;;;;;;;40.28;6.38;;;;;;;;;;6284723;28;20049;-80
2023/11/18 03:53:55;;;;;;;22.17;6.07;;;;;;;;;;6259910;28;20071;-80
2023/11/18 03:56:57;;;;;;;26.67;5.43;;;;;;;;;;6260640;28;20118;-78
2023/11/18 04:00:00;;;;;;;34.67;5.47;;;;;;;;;;6277661;28;20052;-79
2023/11/18 04:03:01;;;;;;;19.33;7.43;;;;;;;;;;6257319;28;20044;-79
2023/11/18 04:06:03;;;;;;;15.75;5.57;;;;;;;;;;6264256;28;20078;-80
2023/11/18 04:09:06;;;;;;;20.60;5.55;;;;;;;;;;6282080;28;20041;-80
2023/11/18 04:12:08;;;;;;;21.58;6.03;;;;;;;;;;6281813;28;20179;-79
2023/11/18 04:15:10;;;;;;;23.48;6.53;;;;;;;;;;6281374;28;20055;-79
2023/11/18 04:18:12;;;;;;;23.58;6.35;;;;;;;;;;6271664;28;20049;-80
2023/11/18 04:21:15;;;;;;;20.08;5.30;;;;;;;;;;6294141;28;20056;-80
2023/11/18 04:24:17;;;;;;;19.43;5.50;;;;;;;;;;6274691;28;20452;-80
2023/11/18 04:27:19;;;;;;;16.60;5.57;;;;;;;;;;6279519;28;20625;-80
2023/11/18 04:30:21;;;;;;;53.75;7.35;;;;;;;;;;6271832;28;20036;-80
2023/11/18 04:33:24;;;;;;;21.90;6.00;;;;;;;;;;6288123;28;20089;-80
2023/11/18 04:36:26;;;;;;;25.60;6.13;;;;;;;;;;6288685;28;20047;-79
2023/11/18 04:39:31;;;;;;;25.90;6.27;;;;;;;;;;6270193;28;20044;-79
2023/11/18 04:42:33;;;;;;;39.65;6.97;;;;;;;;;;6270433;28;20131;-78
2023/11/18 04:45:35;;;;;;;16.85;5.32;;;;;;;;;;6261625;28;20131;-80
2023/11/18 04:48:37;;;;;;;24.15;6.28;;;;;;;;;;6255602;28;20044;-80
2023/11/18 04:51:42;;;;;;;24.30;5.75;;;;;;;;;;6253708;28;20041;-79
2023/11/18 04:54:47;;;;;;;28.25;6.05;;;;;;;;;;6254840;28;20055;-79
2023/11/18 04:57:49;;;;;;;31.02;6.30;;;;;;;;;;6252716;28;20676;-80
2023/11/18 05:00:51;;;;;;;46.33;6.70;;;;;;;;;;6251812;28;20056;-80
2023/11/18 05:03:54;;;;;;;27.23;6.20;;;;;;;;;;6255633;28;20072;-79
2023/11/18 05:06:56;;;;;;;28.73;5.28;;;;;;;;;;6256559;28;20071;-80
2023/11/18 05:09:59;;;;;;;27.93;6.17;;;;;;;;;;6251432;28;20060;-80
2023/11/18 05:13:01;;;;;;;18.95;5.75;;;;;;;;;;6263348;28;20118;-79
2023/11/18 05:16:03;;;;;;;35.28;6.78;;;;;;;;;;6252852;28;20064;-79
2023/11/18 05:19:05;;;;;;;20.35;6.68;;;;;;;;;;6250936;28;20048;-79
2023/11/18 05:22:07;;;;;;;19.05;5.63;;;;;;;;;;6255519;28;20044;-80
2023/11/18 05:25:12;;;;;;;17.45;5.13;;;;;;;;;;6260083;28;20053;-80
2023/11/18 05:28:15;;;;;;;23.08;5.78;;;;;;;;;;6265272;28;20174;-78
2023/11/18 05:31:17;;;;;;;29.13;6.65;;;;;;;;;;6266917;28;20044;-78
2023/11/18 05:34:20;;;;;;;24.67;6.15;;;;;;;;;;6255607;28;20056;-79
2023/11/18 05:37:22;;;;;;;21.38;6.63;;;;;;;;;;6253891;28;20049;-78
2023/11/18 05:40:25;;;;;;;26.17;5.63;;;;;;;;;;6265037;28;20047;-79
2023/11/18 05:43:35;;;;;;;21.25;6.43;;;;;;;;;;6267870;28;20047;-79
2023/11/18 05:46:39;;;;;;;28.50;7.03;;;;;;;;;;6252189;28;20051;-78
2023/11/18 05:49:41;;;;;;;19.08;6.47;;;;;;;;;;6251440;28;20045;-79
2023/11/18 05:52:42;;;;;;;26.63;7.10;;;;;;;;;;6268895;28;20105;-78
2023/11/18 05:55:44;;;;;;;25.13;7.13;;;;;;;;;;6249809;28;20052;-78
2023/11/18 05:58:46;;;;;;;26.85;7.40;;;;;;;;;;6247505;28;20048;-79
2023/11/18 06:01:49;;;;;;;21.35;5.82;;;;;;;;;;6259578;28;20073;-78
2023/11/18 06:04:52;;;;;;;16.92;5.38;;;;;;;;;;6251391;28;20055;-79
2023/11/18 06:07:53;;;;;;;21.02;6.63;;;;;;;;;;6266456;28;20070;-79
2023/11/18 06:10:56;;;;;;;27.65;5.93;;;;;;;;;;6246804;28;20131;-79
2023/11/18 06:13:58;;;;;;;22.02;6.10;;;;;;;;;;6246235;28;20095;-78
2023/11/18 06:17:00;;;;;;;17.85;5.82;;;;;;;;;;6247360;28;20561;-79
2023/11/18 06:20:05;;;;;;;21.25;6.20;;;;;;;;;;6265490;28;20327;-78
2023/11/18 06:23:07;;;;;;;15.13;4.93;;;;;;;;;;6260512;28;20071;-79
2023/11/18 06:26:12;;;;;;;25.73;5.85;;;;;;;;;;6266864;28;20045;-79
2023/11/18 06:29:15;;;;;;;13.77;5.03;;;;;;;;;;6248319;28;20051;-79
2023/11/18 06:32:17;;;;;;;21.67;8.88;;;;;;;;;;6248985;28;20132;-78
2023/11/18 06:35:21;;;;;;;17.23;5.82;;;;;;;;;;6269706;28;20114;-78
2023/11/18 06:38:24;;;;;;;27.95;6.03;;;;;;;;;;6243879;28;20045;-79
2023/11/18 06:41:33;;;;;;;14.68;5.10;;;;;;;;;;6248907;28;20712;-79
2023/11/18 06:44:35;;;;;;;17.08;4.93;;;;;;;;;;6245531;28;20041;-78
2023/11/18 06:47:38;;;;;;;13.23;5.45;;;;;;;;;;6252195;28;20053;-79
2023/11/18 06:50:43;;;;;;;12.18;4.38;;;;;;;;;;6260945;28;20045;-79
2023/11/18 06:53:45;;;;;;;11.85;5.50;;;;;;;;;;6245332;28;20127;-79
2023/11/18 06:56:47;;;;;;;12.98;4.90;;;;;;;;;;6250446;28;20048;-79
2023/11/18 06:59:49;;;;;;;9.57;4.28;;;;;;;;;;6260110;28;20052;-78
2023/11/18 07:02:50;;;;;;;11.30;5.63;;;;;;;;;;6245202;28;20096;-79
2023/11/18 07:05:52;;;;;;;13.65;5.53;;;;;;;;;;6266955;28;20079;-79
2023/11/18 07:09:00;;;;;;;14.55;5.47;;;;;;;;;;6271603;28;20725;-79
2023/11/18 07:12:03;;;;;;;8.50;4.43;;;;;;;;;;6247665;28;20130;-78
2023/11/18 07:15:05;;;;;;;16.83;7.15;;;;;;;;;;6253484;28;20053;-78
2023/11/18 07:18:08;;;;;;;13.43;5.78;;;;;;;;;;6261300;28;20135;-78
2023/11/18 07:21:10;;;;;;;10.93;4.50;;;;;;;;;;6248885;28;20048;-79
2023/11/18 07:24:12;;;;;;;11.45;4.35;;;;;;;;;;6248889;28;20048;-78
2023/11/18 07:27:14;;;;;;;11.43;5.45;;;;;;;;;;6247500;28;20045;-78
2023/11/18 07:30:16;;;;;;;14.98;6.70;;;;;;;;;;6254440;28;20084;-77
2023/11/18 07:33:18;;;;;;;23.85;9.68;;;;;;;;;;6275390;28;20052;-77
2023/11/18 07:36:20;;;;;;;16.92;7.03;;;;;;;;;;6277450;28;20040;-78
2023/11/18 07:39:29;;;;;;;17.23;6.68;;;;;;;;;;6252162;28;20175;-77
2023/11/18 07:42:34;;;;;;;40.40;21.00;;;;;;;;;;6267719;28;20053;-78
2023/11/18 07:45:39;;;;;;;19.00;10.45;;;;;;;;;;6244040;28;20048;-79
2023/11/18 07:48:41;;;;;;;29.90;16.77;;;;;;;;;;6255585;28;20334;-79
2023/11/18 07:51:43;;;;;;;17.80;7.32;;;;;;;;;;6247165;28;20036;-79
2023/11/18 07:54:45;;;;;;;50.83;34.88;;;;;;;;;;6243496;28;20044;-78
2023/11/18 07:57:47;;;;;;;28.88;16.13;;;;;;;;;;6249672;28;20049;-78
2023/11/18 08:00:50;;;;;;;20.98;8.60;;;;;;;;;;6244140;28;20168;-78
2023/11/18 08:03:52;;;;;;;25.27;11.02;;;;;;;;;;6270201;28;20044;-79
2023/11/18 08:06:55;;;;;;;34.22;19.45;;;;;;;;;;6254349;28;20060;-78
2023/11/18 08:09:57;;;;;;;91.95;42.90;;;;;;;;;;6253108;28;20056;-78
2023/11/18 08:12:59;;;;;;;38.08;18.33;;;;;;;;;;6245645;28;20044;-77
2023/11/18 08:16:01;;;;;;;18.42;8.63;;;;;;;;;;6234607;28;20037;-75
2023/11/18 08:19:03;;;;;;;48.15;28.90;;;;;;;;;;6249332;28;20047;-77
2023/11/18 08:22:05;;;;;;;22.98;13.93;;;;;;;;;;6265091;28;20040;-76
2023/11/18 08:25:08;;;;;;;;;;;;;;;;;;6267496;28;20047;-77
2023/11/18 08:28:11;;;;;;;15.55;6.75;;;;;;;;;;6263408;28;20011;-77
2023/11/18 08:31:15;;;;;;;21.27;14.00;;;;;;;;;;6245461;28;20049;-78
2023/11/18 08:34:18;;;;;;;16.88;10.45;;;;;;;;;;6252344;28;20044;-77
2023/11/18 08:37:21;;;;;;;21.20;12.95;;;;;;;;;;6266623;28;20042;-77
2023/11/18 08:40:23;;;;;;;18.33;10.17;;;;;;;;;;6251089;28;20048;-77
2023/11/18 08:43:25;;;;;;;16.63;7.20;;;;;;;;;;6257127;28;20125;-77
2023/11/18 08:46:27;;;;;;;13.15;4.82;;;;;;;;;;6270096;28;20048;-77
2023/11/18 08:49:33;;;;;;;14.98;5.70;;;;;;;;;;6282666;28;20044;-78
2023/11/18 08:52:36;;;;;;;18.52;6.72;;;;;;;;;;6273821;28;20124;-77
2023/11/18 08:55:39;;;;;;;14.18;5.95;;;;;;;;;;6279308;28;20059;-77
2023/11/18 08:58:44;;;;;;;17.33;6.88;;;;;;;;;;6268874;28;20145;-77
2023/11/18 09:01:48;;;;;;;28.63;11.57;;;;;;;;;;6257785;28;20075;-77
2023/11/18 09:04:52;;;;;;;30.33;11.20;;;;;;;;;;6263568;28;20048;-76
2023/11/18 09:07:57;;;;;;;36.50;13.02;;;;;;;;;;6258552;28;20055;-76
2023/11/18 09:10:59;;;;;;;24.50;7.95;;;;;;;;;;6271590;28;20048;-75
2023/11/18 09:14:03;;;;;;;17.98;6.60;;;;;;;;;;6253056;28;20314;-76
2023/11/18 09:17:06;;;;;;;19.00;7.25;;;;;;;;;;6263623;28;20051;-77
2023/11/18 09:20:11;;;;;;;31.90;10.70;;;;;;;;;;6270233;28;20063;-79
2023/11/18 09:23:15;;;;;;;41.30;13.15;;;;;;;;;;6258763;28;20442;-77
2023/11/18 09:26:18;;;;;;;26.40;10.45;;;;;;;;;;6266967;28;20072;-80
2023/11/18 09:29:24;;;;;;;30.23;13.60;;;;;;;;;;6252657;28;20066;-77
2023/11/18 09:32:26;;;;;;;29.45;10.55;;;;;;;;;;6265476;28;20028;-76
2023/11/18 09:35:29;;;;;;;32.42;13.65;;;;;;;;;;6266481;28;20142;-77
2023/11/18 09:38:35;;;;;;;83.57;36.55;;;;;;;;;;6277166;28;20028;-77
2023/11/18 09:41:37;;;;;;;35.88;14.32;;;;;;;;;;6252450;28;20040;-78
2023/11/18 09:44:39;;;;;;;97.40;43.70;;;;;;;;;;6267570;28;20097;-77
2023/11/18 09:47:47;;;;;;;28.67;13.07;;;;;;;;;;6268900;28;20064;-78
2023/11/18 09:50:51;;;;;;;24.30;7.82;;;;;;;;;;6259979;28;20040;-77
2023/11/18 09:53:54;;;;;;;103.38;47.10;;;;;;;;;;6257598;28;20064;-77
2023/11/18 09:57:19;;;;;;;37.78;17.77;;;;;;;;;;6264185;28;20072;-79
2023/11/18 10:00:26;;;;;;;30.48;13.95;;;;;;;;;;6264113;28;20041;-79
2023/11/18 10:03:29;;;;;;;19.27;8.65;;;;;;;;;;6257975;28;20080;-78
2023/11/18 10:06:33;;;;;;;55.67;27.45;;;;;;;;;;6251289;28;20063;-78
2023/11/18 10:09:39;;;;;;;44.97;20.40;;;;;;;;;;6262871;28;20416;-77
2023/11/18 10:12:44;;;;;;;30.02;11.60;;;;;;;;;;6245503;28;20045;-78
2023/11/18 10:15:47;;;;;;;65.13;31.20;;;;;;;;;;6245828;28;20063;-78
2023/11/18 10:18:53;;;;;;;25.02;11.63;;;;;;;;;;6252720;28;20052;-78
2023/11/18 10:21:56;;;;;;;34.65;15.05;;;;;;;;;;6253413;28;20052;-79
2023/11/18 10:25:00;;;;;;;19.90;7.45;;;;;;;;;;6248612;28;20064;-78
2023/11/18 10:28:03;;;;;;;26.05;11.27;;;;;;;;;;6238985;28;20032;-79
2023/11/18 10:31:09;;;;;;;30.83;11.50;;;;;;;;;;6244722;28;20048;-77
2023/11/18 10:34:18;;;;;;;25.50;8.82;;;;;;;;;;6253839;28;20393;-76
2023/11/18 10:37:20;;;;;;;17.27;7.47;;;;;;;;;;6248090;28;20059;-77
2023/11/18 10:40:24;;;;;;;20.92;7.35;;;;;;;;;;6238018;28;20045;-77
2023/11/18 10:43:28;;;;;;;22.63;7.95;;;;;;;;;;6234021;28;20097;-79
2023/11/18 10:46:32;;;;;;;19.38;6.90;;;;;;;;;;6239848;28;20102;-77
2023/11/18 10:49:36;;;;;;;21.65;6.57;;;;;;;;;;6250566;28;20505;-78
2023/11/18 10:52:40;;;;;;;20.08;7.97;;;;;;;;;;6248420;28;20564;-76
2023/11/18 10:55:43;;;;;;;22.25;7.70;;;;;;;;;;6267091;28;20059;-77
2023/11/18 10:58:46;;;;;;;22.38;7.93;;;;;;;;;;6269693;28;20045;-77
2023/11/18 11:01:48;;;;;;;24.60;7.80;;;;;;;;;;6268995;28;20045;-78
2023/11/18 11:04:52;;;;;;;21.42;7.75;;;;;;;;;;6262048;28;20041;-79
2023/11/18 11:07:54;;;;;;;22.40;8.47;;;;;;;;;;6266596;28;20052;-78
2023/11/18 11:10:58;;;;;;;22.77;7.93;;;;;;;;;;6258086;28;20040;-78
2023/11/18 11:14:03;;;;;;;24.50;8.23;;;;;;;;;;6240336;28;20045;-78
2023/11/18 11:17:25;;;;;;;26.00;8.07;;;;;;;;;;6254007;28;20045;-81
2023/11/18 11:20:32;;;;;;;29.95;8.40;;;;;;;;;;6259658;28;20131;-79
2023/11/18 11:24:12;;;;;;;26.27;9.02;;;;;;;;;;6250286;28;20061;-80
2023/11/18 11:27:39;;;;;;;25.48;8.45;;;;;;;;;;6238293;28;20048;-79
2023/11/18 11:30:46;;;;;;;22.83;7.68;;;;;;;;;;6264619;28;20044;-79
2023/11/18 11:33:58;;;;;;;25.00;8.27;;;;;;;;;;6260795;28;20048;-79
2023/11/18 11:37:04;;;;;;;25.90;8.45;;;;;;;;;;6239085;28;20041;-79
2023/11/18 11:40:11;;;;;;;24.30;8.30;;;;;;;;;;6242390;28;20044;-79
2023/11/18 11:43:20;;;;;;;21.80;8.45;;;;;;;;;;6249458;28;20723;-79
2023/11/18 11:46:24;;;;;;;23.85;8.90;;;;;;;;;;6248613;28;20078;-77
2023/11/18 11:49:36;;;;;;;21.70;8.75;;;;;;;;;;6257479;28;20041;-79
2023/11/18 11:52:48;;;;;;;21.50;7.50;;;;;;;;;;6245789;28;20048;-79
2023/11/18 11:55:53;;;;;;;23.13;9.32;;;;;;;;;;6254234;28;20525;-79
2023/11/18 11:58:59;;;;;;;29.35;11.32;;;;;;;;;;6248943;28;20063;-78
2023/11/18 12:02:07;;;;;;;29.75;11.23;;;;;;;;;;6260068;28;20045;-78
2023/11/18 12:05:18;;;;;;;26.33;8.85;;;;;;;;;;6262868;28;20126;-79
2023/11/18 12:08:23;;;;;;;28.83;10.38;;;;;;;;;;6262762;28;20040;-76
2023/11/18 12:11:27;;;;;;;31.25;11.25;;;;;;;;;;6244344;28;20217;-77
2023/11/18 12:17:51;;;;;;;29.77;11.30;;;;;;;;;;6280711;28;20036;-79
2023/11/18 12:20:57;;;;;;;26.95;10.07;;;;;;;;;;6253848;28;20052;-80
2023/11/18 12:24:19;;;;;;;24.30;9.27;;;;;;;;;;6254208;28;20080;-80
2023/11/18 12:27:40;;;;;;;23.85;8.38;;;;;;;;;;6266962;28;20056;-79
2023/11/18 12:30:51;;;;;;;22.02;9.10;;;;;;;;;;6246780;28;20049;-79
2023/11/18 12:33:53;;;;;;;25.58;9.43;;;;;;;;;;6256061;28;20048;-79
2023/11/18 12:37:25;;;;;;;34.13;13.32;;;;;;;;;;6245824;28;20442;-79
2023/11/18 12:40:59;;;;;;;28.45;12.80;;;;;;;;;;6256020;28;20053;-79
2023/11/18 12:44:39;;;;;;;39.25;14.60;;;;;;;;;;6238738;28;20108;-80
2023/11/18 12:47:48;;;;;;;26.95;9.73;;;;;;;;;;6244933;28;20122;-80
2023/11/18 12:50:49;;;;;;;31.50;10.82;;;;;;;;;;6267149;28;20037;-79
2023/11/18 12:53:53;;;;;;;28.30;10.23;;;;;;;;;;6242641;28;20045;-81
2023/11/18 12:56:56;;;;;;;28.77;9.50;;;;;;;;;;6255750;28;20047;-79
2023/11/18 12:59:57;;;;;;;76.90;30.30;;;;;;;;;;6246513;28;20407;-79
2023/11/18 13:03:00;;;;;;;48.35;20.58;;;;;;;;;;6259102;28;20060;-79
2023/11/18 13:06:05;;;;;;;51.30;21.70;;;;;;;;;;6246284;28;20057;-80
2023/11/18 13:09:09;;;;;;;37.50;13.90;;;;;;;;;;6261169;28;20116;-78
2023/11/18 13:12:15;;;;;;;36.05;10.85;;;;;;;;;;6245037;28;20098;-79
2023/11/18 13:15:16;;;;;;;23.73;10.10;;;;;;;;;;6258721;28;20048;-80
2023/11/18 13:18:19;;;;;;;97.55;44.67;;;;;;;;;;6267000;28;20060;-79
2023/11/18 13:21:23;;;;;;;35.83;15.60;;;;;;;;;;6249719;28;20142;-79
2023/11/18 13:24:29;;;;;;;33.22;12.73;;;;;;;;;;6245116;28;20568;-79
2023/11/18 13:27:34;;;;;;;26.77;11.32;;;;;;;;;;6259229;28;20036;-79
2023/11/18 13:30:38;;;;;;;29.85;12.60;;;;;;;;;;6251932;28;20079;-78
2023/11/18 13:33:47;;;;;;;35.63;13.25;;;;;;;;;;6263564;28;20434;-77
2023/11/18 13:36:49;;;;;;;26.52;10.77;;;;;;;;;;6245002;28;20052;-77
2023/11/18 13:39:55;;;;;;;33.67;12.95;;;;;;;;;;6249512;28;20166;-77
2023/11/18 13:43:08;;;;;;;49.92;18.95;;;;;;;;;;6245521;28;20049;-80
2023/11/18 13:46:13;;;;;;;33.17;15.23;;;;;;;;;;6241045;28;20041;-78
2023/11/18 13:49:15;;;;;;;37.53;15.98;;;;;;;;;;6245616;28;20060;-76
2023/11/18 13:52:18;;;;;;;29.80;13.80;;;;;;;;;;6244225;28;20422;-78
2023/11/18 13:55:27;;;;;;;30.15;12.73;;;;;;;;;;6246264;28;20080;-76
2023/11/18 13:58:29;;;;;;;23.67;11.13;;;;;;;;;;6240332;28;20043;-79
2023/11/18 14:01:31;;;;;;;30.25;11.65;;;;;;;;;;6259567;28;20055;-77
2023/11/18 14:04:33;;;;;;;34.67;12.40;;;;;;;;;;6245111;28;20047;-77
2023/11/18 14:07:38;;;;;;;33.95;14.20;;;;;;;;;;6255930;28;20127;-76
2023/11/18 14:10:40;;;;;;;65.05;23.70;;;;;;;;;;6253086;28;20171;-77
2023/11/18 14:13:43;;;;;;;42.55;15.25;;;;;;;;;;6258703;28;20068;-77
2023/11/18 14:16:45;;;;;;;25.75;11.15;;;;;;;;;;6259243;28;20453;-77
2023/11/18 14:19:47;;;;;;;34.50;13.88;;;;;;;;;;6252710;28;20060;-76
2023/11/18 14:22:49;;;;;;;43.97;16.55;;;;;;;;;;6237926;28;20047;-78
2023/11/18 14:25:53;;;;;;;31.85;13.02;;;;;;;;;;6238438;28;20064;-78
2023/11/18 14:28:55;;;;;;;35.10;15.15;;;;;;;;;;6261878;28;20052;-77
2023/11/18 14:31:58;;;;;;;27.23;10.63;;;;;;;;;;6260241;28;20052;-76
2023/11/18 14:35:00;;;;;;;21.48;10.25;;;;;;;;;;6272301;28;20060;-76
2023/11/18 14:38:02;;;;;;;26.75;10.98;;;;;;;;;;6259377;28;20132;-78
2023/11/18 14:41:04;;;;;;;27.98;11.93;;;;;;;;;;6244958;28;20051;-77
2023/11/18 14:44:09;;;;;;;25.52;11.63;;;;;;;;;;6258606;28;20045;-78
2023/11/18 14:47:11;;;;;;;25.58;11.60;;;;;;;;;;6244231;28;20052;-77
2023/11/18 14:50:20;;;;;;;24.95;10.23;;;;;;;;;;6265314;28;20048;-79
2023/11/18 14:53:22;;;;;;;26.52;10.52;;;;;;;;;;6241966;28;20053;-78
2023/11/18 14:56:24;;;;;;;24.00;9.95;;;;;;;;;;6255449;28;20045;-77
2023/11/18 14:59:27;;;;;;;21.38;9.10;;;;;;;;;;6237055;28;20186;-79
2023/11/18 15:02:28;;;;;;;24.67;9.97;;;;;;;;;;6242707;28;20043;-79
2023/11/18 15:05:31;;;;;;;23.50;9.80;;;;;;;;;;6256023;28;20045;-78
2023/11/18 15:08:33;;;;;;;23.85;9.98;;;;;;;;;;6242434;28;20137;-78
2023/11/18 15:11:37;;;;;;;24.35;9.57;;;;;;;;;;6238191;28;20128;-77
2023/11/18 15:14:39;;;;;;;26.52;9.00;;;;;;;;;;6259982;28;20049;-78
2023/11/18 15:17:42;;;;;;;19.10;8.90;;;;;;;;;;6247242;28;20400;-77
2023/11/18 15:20:49;;;;;;;23.80;9.80;;;;;;;;;;6258150;28;20052;-77
2023/11/18 15:23:51;;;;;;;19.43;8.90;;;;;;;;;;6254177;28;20049;-79
2023/11/18 15:26:54;;;;;;;22.30;10.45;;;;;;;;;;6252495;28;20048;-78
2023/11/18 15:29:55;;;;;;;20.80;9.32;;;;;;;;;;6239147;28;20061;-79
2023/11/18 15:32:57;;;;;;;22.42;9.25;;;;;;;;;;6238037;28;20057;-79
2023/11/18 15:36:01;;;;;;;20.83;9.40;;;;;;;;;;6244396;28;20053;-77
2023/11/18 15:39:03;;;;;;;;;;;;;;;;;;6245082;28;20102;-78
2023/11/18 15:42:05;;;;;;;33.80;15.73;;;;;;;;;;6240750;28;19924;-77
2023/11/18 15:45:11;;;;;;;23.00;9.87;;;;;;;;;;6245589;28;20060;-79
2023/11/18 15:48:14;;;;;;;26.33;12.38;;;;;;;;;;6256103;28;20513;-78
2023/11/18 15:51:17;;;;;;;28.17;12.77;;;;;;;;;;6259402;28;20513;-79
2023/11/18 15:54:20;;;;;;;27.27;11.85;;;;;;;;;;6267263;28;20113;-79
2023/11/18 15:57:22;;;;;;;34.35;13.35;;;;;;;;;;6246735;28;20041;-78
2023/11/18 16:00:26;;;;;;;38.85;14.65;;;;;;;;;;6245933;28;20064;-76
2023/11/18 16:03:28;;;;;;;38.70;14.75;;;;;;;;;;6238943;28;20051;-77
2023/11/18 16:06:30;;;;;;;39.15;14.77;;;;;;;;;;6264796;28;20044;-77
2023/11/18 16:09:31;;;;;;;49.60;17.30;;;;;;;;;;6258119;28;20061;-79
2023/11/18 16:12:33;;;;;;;76.68;29.10;;;;;;;;;;6237665;28;20049;-78
2023/11/18 16:15:35;;;;;;;22.83;11.50;;;;;;;;;;6242297;28;20051;-78
2023/11/18 16:18:37;;;;;;;22.77;11.00;;;;;;;;;;6253161;28;20052;-78
2023/11/18 16:21:39;;;;;;;22.50;10.85;;;;;;;;;;6254108;28;20053;-77
2023/11/18 16:24:41;;;;;;;20.38;10.18;;;;;;;;;;6255832;28;20537;-78
2023/11/18 16:27:43;;;;;;;20.17;9.27;;;;;;;;;;6245289;28;20055;-76
2023/11/18 16:30:45;;;;;;;17.33;9.40;;;;;;;;;;6256222;28;20050;-78
2023/11/18 16:33:48;;;;;;;21.17;9.52;;;;;;;;;;6263408;28;20194;-76
2023/11/18 16:36:52;;;;;;;21.00;10.05;;;;;;;;;;6247570;28;20049;-78
2023/11/18 16:39:54;;;;;;;16.80;8.90;;;;;;;;;;6265771;28;20045;-76
2023/11/18 16:42:59;;;;;;;21.38;10.60;;;;;;;;;;6245567;28;20053;-79
2023/11/18 16:46:01;;;;;;;18.70;9.65;;;;;;;;;;6252210;28;20060;-76
2023/11/18 16:49:03;;;;;;;19.70;9.23;;;;;;;;;;6261300;28;20074;-76
2023/11/18 16:52:05;;;;;;;20.70;9.82;;;;;;;;;;6255938;28;20063;-76
2023/11/18 16:55:10;;;;;;;20.48;10.02;;;;;;;;;;6238866;28;20053;-77
2023/11/18 16:58:12;;;;;;;20.73;9.38;;;;;;;;;;6263891;28;20045;-78
2023/11/18 17:01:15;;;;;;;21.48;10.30;;;;;;;;;;6249889;28;20044;-76
2023/11/18 17:04:17;;;;;;;16.75;8.98;;;;;;;;;;6248141;28;20419;-76
2023/11/18 17:07:21;;;;;;;15.05;8.88;;;;;;;;;;6260325;28;20107;-76
2023/11/18 17:10:23;;;;;;;15.10;8.15;;;;;;;;;;6244418;28;20053;-77
2023/11/18 17:13:26;;;;;;;20.17;11.73;;;;;;;;;;6257369;28;20045;-76
2023/11/18 17:16:28;;;;;;;15.95;8.55;;;;;;;;;;6242712;28;20040;-78
2023/11/18 17:19:30;;;;;;;16.88;8.23;;;;;;;;;;6266326;28;20041;-78
2023/11/18 17:22:32;;;;;;;16.10;8.35;;;;;;;;;;6258111;28;20073;-78
2023/11/18 17:25:33;;;;;;;14.10;7.63;;;;;;;;;;6254734;28;20064;-77
2023/11/18 17:28:36;;;;;;;15.70;7.93;;;;;;;;;;6241219;28;20045;-76
2023/11/18 17:31:37;;;;;;;17.20;7.72;;;;;;;;;;6248163;28;20041;-77
2023/11/18 17:34:41;;;;;;;11.82;7.53;;;;;;;;;;6264455;28;20055;-76
2023/11/18 17:37:45;;;;;;;14.15;7.25;;;;;;;;;;6250010;28;20049;-78
2023/11/18 17:40:46;;;;;;;14.32;7.35;;;;;;;;;;6258925;28;20051;-79
2023/11/18 17:43:49;;;;;;;11.93;6.68;;;;;;;;;;6257329;28;20047;-78
2023/11/18 17:46:51;;;;;;;10.05;5.78;;;;;;;;;;6243386;28;20049;-77
2023/11/18 17:49:52;;;;;;;13.82;6.53;;;;;;;;;;6238015;28;20048;-77
2023/11/18 17:52:57;;;;;;;14.05;8.82;;;;;;;;;;6242454;28;20056;-75
2023/11/18 17:55:59;;;;;;;10.73;6.53;;;;;;;;;;6234294;28;20036;-76
2023/11/18 17:59:00;;;;;;;11.18;7.28;;;;;;;;;;6235801;28;20378;-77
2023/11/18 18:02:03;;;;;;;9.30;6.35;;;;;;;;;;6243691;28;20048;-76
2023/11/18 18:05:05;;;;;;;10.60;7.10;;;;;;;;;;6272931;28;20052;-76